sensor_id;sensor_type;location;lat;lon;timestamp;P1;durP1;ratioP1;P2;durP2;ratioP2
19163;SDS011;9714;51.208;4.242;2023-02-18T00:00:19;30.83;;;17.20;;
19163;SDS011;9714;51.208;4.242;2023-02-18T00:02:48;31.97;;;17.00;;
19163;SDS011;9714;51.208;4.242;2023-02-18T00:05:15;35.70;;;18.10;;
19163;SDS011;9714;51.208;4.242;2023-02-18T00:07:43;28.07;;;16.63;;
19163;SDS011;9714;51.208;4.242;2023-02-18T00:10:12;31.63;;;17.50;;
19163;SDS011;9714;51.208;4.242;2023-02-18T00:12:40;33.83;;;18.97;;
19163;SDS011;9714;51.208;4.242;2023-02-18T00:15:14;33.33;;;17.50;;
19163;SDS011;9714;51.208;4.242;2023-02-18T00:17:40;34.80;;;20.13;;
19163;SDS011;9714;51.208;4.242;2023-02-18T00:20:08;39.07;;;19.50;;
19163;SDS011;9714;51.208;4.242;2023-02-18T00:22:38;37.40;;;19.90;;
19163;SDS011;9714;51.208;4.242;2023-02-18T00:25:05;34.77;;;19.63;;
19163;SDS011;9714;51.208;4.242;2023-02-18T00:27:35;35.20;;;19.27;;
19163;SDS011;9714;51.208;4.242;2023-02-18T00:30:02;32.40;;;19.13;;
19163;SDS011;9714;51.208;4.242;2023-02-18T00:32:31;33.00;;;18.80;;
19163;SDS011;9714;51.208;4.242;2023-02-18T00:34:59;33.93;;;19.23;;
19163;SDS011;9714;51.208;4.242;2023-02-18T00:37:26;35.33;;;19.83;;
19163;SDS011;9714;51.208;4.242;2023-02-18T00:39:53;31.23;;;17.57;;
19163;SDS011;9714;51.208;4.242;2023-02-18T00:42:22;34.37;;;18.77;;
19163;SDS011;9714;51.208;4.242;2023-02-18T00:44:51;29.27;;;17.87;;
19163;SDS011;9714;51.208;4.242;2023-02-18T00:47:19;31.43;;;17.63;;
19163;SDS011;9714;51.208;4.242;2023-02-18T00:49:46;30.97;;;18.17;;
19163;SDS011;9714;51.208;4.242;2023-02-18T00:52:13;29.53;;;17.80;;
19163;SDS011;9714;51.208;4.242;2023-02-18T00:54:40;32.67;;;17.40;;
19163;SDS011;9714;51.208;4.242;2023-02-18T00:57:07;28.50;;;17.03;;
19163;SDS011;9714;51.208;4.242;2023-02-18T00:59:33;29.97;;;16.93;;
19163;SDS011;9714;51.208;4.242;2023-02-18T01:02:08;26.83;;;15.80;;
19163;SDS011;9714;51.208;4.242;2023-02-18T01:04:35;26.37;;;15.80;;
19163;SDS011;9714;51.208;4.242;2023-02-18T01:07:02;27.37;;;15.27;;
19163;SDS011;9714;51.208;4.242;2023-02-18T01:09:29;24.40;;;15.63;;
19163;SDS011;9714;51.208;4.242;2023-02-18T01:11:56;25.47;;;14.37;;
19163;SDS011;9714;51.208;4.242;2023-02-18T01:14:23;24.20;;;14.73;;
19163;SDS011;9714;51.208;4.242;2023-02-18T01:16:50;23.03;;;14.40;;
19163;SDS011;9714;51.208;4.242;2023-02-18T01:19:18;21.83;;;13.77;;
19163;SDS011;9714;51.208;4.242;2023-02-18T01:21:45;25.60;;;14.13;;
19163;SDS011;9714;51.208;4.242;2023-02-18T01:24:13;23.30;;;13.87;;
19163;SDS011;9714;51.208;4.242;2023-02-18T01:26:40;21.13;;;12.90;;
19163;SDS011;9714;51.208;4.242;2023-02-18T01:29:07;22.93;;;13.23;;
19163;SDS011;9714;51.208;4.242;2023-02-18T01:31:34;22.77;;;13.73;;
19163;SDS011;9714;51.208;4.242;2023-02-18T01:34:01;23.53;;;14.13;;
19163;SDS011;9714;51.208;4.242;2023-02-18T01:36:29;20.70;;;12.60;;
19163;SDS011;9714;51.208;4.242;2023-02-18T01:38:57;24.03;;;12.67;;
19163;SDS011;9714;51.208;4.242;2023-02-18T01:41:30;24.03;;;14.00;;
19163;SDS011;9714;51.208;4.242;2023-02-18T01:46:48;20.30;;;12.70;;
19163;SDS011;9714;51.208;4.242;2023-02-18T01:49:16;23.83;;;14.67;;
19163;SDS011;9714;51.208;4.242;2023-02-18T01:51:50;24.30;;;13.37;;
19163;SDS011;9714;51.208;4.242;2023-02-18T01:54:21;22.57;;;12.73;;
19163;SDS011;9714;51.208;4.242;2023-02-18T01:56:53;23.73;;;12.17;;
19163;SDS011;9714;51.208;4.242;2023-02-18T01:59:23;19.67;;;11.17;;
19163;SDS011;9714;51.208;4.242;2023-02-18T02:01:55;21.00;;;11.80;;
19163;SDS011;9714;51.208;4.242;2023-02-18T02:04:24;23.17;;;13.43;;
19163;SDS011;9714;51.208;4.242;2023-02-18T02:06:55;22.63;;;12.87;;
19163;SDS011;9714;51.208;4.242;2023-02-18T02:09:22;22.30;;;12.33;;
19163;SDS011;9714;51.208;4.242;2023-02-18T02:15:12;22.83;;;13.07;;
19163;SDS011;9714;51.208;4.242;2023-02-18T02:17:53;22.43;;;10.80;;
19163;SDS011;9714;51.208;4.242;2023-02-18T02:20:37;22.97;;;12.77;;
19163;SDS011;9714;51.208;4.242;2023-02-18T02:23:32;22.43;;;11.97;;
19163;SDS011;9714;51.208;4.242;2023-02-18T02:26:24;23.67;;;12.17;;
19163;SDS011;9714;51.208;4.242;2023-02-18T02:29:24;19.33;;;9.73;;
19163;SDS011;9714;51.208;4.242;2023-02-18T02:32:15;20.63;;;10.90;;
19163;SDS011;9714;51.208;4.242;2023-02-18T02:34:55;20.17;;;10.13;;
19163;SDS011;9714;51.208;4.242;2023-02-18T02:37:26;21.33;;;11.23;;
19163;SDS011;9714;51.208;4.242;2023-02-18T02:40:03;18.40;;;10.10;;
19163;SDS011;9714;51.208;4.242;2023-02-18T02:42:44;17.43;;;9.23;;
19163;SDS011;9714;51.208;4.242;2023-02-18T02:45:22;17.60;;;9.50;;
19163;SDS011;9714;51.208;4.242;2023-02-18T02:47:58;16.87;;;9.07;;
19163;SDS011;9714;51.208;4.242;2023-02-18T02:50:33;17.23;;;9.13;;
19163;SDS011;9714;51.208;4.242;2023-02-18T02:53:18;17.17;;;8.80;;
19163;SDS011;9714;51.208;4.242;2023-02-18T02:55:53;15.33;;;7.57;;
19163;SDS011;9714;51.208;4.242;2023-02-18T02:58:22;14.93;;;7.63;;
19163;SDS011;9714;51.208;4.242;2023-02-18T03:03:54;16.43;;;8.50;;
19163;SDS011;9714;51.208;4.242;2023-02-18T03:07:00;16.20;;;8.67;;
19163;SDS011;9714;51.208;4.242;2023-02-18T03:10:02;16.40;;;8.83;;
19163;SDS011;9714;51.208;4.242;2023-02-18T03:12:59;14.27;;;7.93;;
19163;SDS011;9714;51.208;4.242;2023-02-18T03:15:39;16.10;;;8.37;;
19163;SDS011;9714;51.208;4.242;2023-02-18T03:18:19;15.93;;;7.93;;
19163;SDS011;9714;51.208;4.242;2023-02-18T03:20:55;13.80;;;6.73;;
19163;SDS011;9714;51.208;4.242;2023-02-18T03:23:31;12.57;;;6.67;;
19163;SDS011;9714;51.208;4.242;2023-02-18T03:26:03;13.73;;;5.83;;
19163;SDS011;9714;51.208;4.242;2023-02-18T03:28:33;16.83;;;7.50;;
19163;SDS011;9714;51.208;4.242;2023-02-18T03:31:02;14.53;;;5.20;;
19163;SDS011;9714;51.208;4.242;2023-02-18T03:33:36;11.37;;;6.10;;
19163;SDS011;9714;51.208;4.242;2023-02-18T03:36:14;12.60;;;5.97;;
19163;SDS011;9714;51.208;4.242;2023-02-18T03:38:52;12.87;;;6.63;;
19163;SDS011;9714;51.208;4.242;2023-02-18T03:41:25;10.60;;;4.93;;
19163;SDS011;9714;51.208;4.242;2023-02-18T03:43:58;11.50;;;5.63;;
19163;SDS011;9714;51.208;4.242;2023-02-18T03:46:46;10.33;;;4.20;;
19163;SDS011;9714;51.208;4.242;2023-02-18T03:49:15;14.47;;;4.53;;
19163;SDS011;9714;51.208;4.242;2023-02-18T03:51:46;9.93;;;4.07;;
19163;SDS011;9714;51.208;4.242;2023-02-18T03:54:15;8.93;;;4.47;;
19163;SDS011;9714;51.208;4.242;2023-02-18T03:56:42;10.50;;;4.43;;
19163;SDS011;9714;51.208;4.242;2023-02-18T03:59:09;11.43;;;5.20;;
19163;SDS011;9714;51.208;4.242;2023-02-18T04:01:37;10.33;;;4.20;;
19163;SDS011;9714;51.208;4.242;2023-02-18T04:04:05;10.00;;;3.93;;
19163;SDS011;9714;51.208;4.242;2023-02-18T04:06:35;9.40;;;4.57;;
19163;SDS011;9714;51.208;4.242;2023-02-18T04:09:03;10.73;;;4.57;;
19163;SDS011;9714;51.208;4.242;2023-02-18T04:14:25;9.30;;;4.50;;
19163;SDS011;9714;51.208;4.242;2023-02-18T04:17:00;10.13;;;4.17;;
19163;SDS011;9714;51.208;4.242;2023-02-18T04:19:38;9.93;;;4.73;;
19163;SDS011;9714;51.208;4.242;2023-02-18T04:22:08;12.53;;;5.87;;
19163;SDS011;9714;51.208;4.242;2023-02-18T04:24:35;11.90;;;6.10;;
19163;SDS011;9714;51.208;4.242;2023-02-18T04:27:04;10.67;;;5.27;;
19163;SDS011;9714;51.208;4.242;2023-02-18T04:29:32;11.50;;;5.60;;
19163;SDS011;9714;51.208;4.242;2023-02-18T04:31:59;13.17;;;6.10;;
19163;SDS011;9714;51.208;4.242;2023-02-18T04:34:29;11.37;;;5.67;;
19163;SDS011;9714;51.208;4.242;2023-02-18T04:37:01;13.70;;;6.80;;
19163;SDS011;9714;51.208;4.242;2023-02-18T04:39:30;12.70;;;6.53;;
19163;SDS011;9714;51.208;4.242;2023-02-18T04:42:05;13.00;;;6.03;;
19163;SDS011;9714;51.208;4.242;2023-02-18T04:44:34;14.23;;;6.20;;
19163;SDS011;9714;51.208;4.242;2023-02-18T04:47:04;13.87;;;6.80;;
19163;SDS011;9714;51.208;4.242;2023-02-18T04:49:35;14.10;;;5.87;;
19163;SDS011;9714;51.208;4.242;2023-02-18T04:52:05;13.13;;;6.37;;
19163;SDS011;9714;51.208;4.242;2023-02-18T04:54:34;11.93;;;6.30;;
19163;SDS011;9714;51.208;4.242;2023-02-18T04:57:12;14.40;;;6.57;;
19163;SDS011;9714;51.208;4.242;2023-02-18T04:59:40;12.37;;;6.60;;
19163;SDS011;9714;51.208;4.242;2023-02-18T05:02:10;12.03;;;6.40;;
19163;SDS011;9714;51.208;4.242;2023-02-18T05:08:42;10.00;;;4.73;;
19163;SDS011;9714;51.208;4.242;2023-02-18T05:11:46;12.37;;;4.50;;
19163;SDS011;9714;51.208;4.242;2023-02-18T05:14:15;9.30;;;4.30;;
19163;SDS011;9714;51.208;4.242;2023-02-18T05:16:45;9.40;;;4.20;;
19163;SDS011;9714;51.208;4.242;2023-02-18T05:19:18;11.97;;;4.47;;
19163;SDS011;9714;51.208;4.242;2023-02-18T05:21:45;9.87;;;4.47;;
19163;SDS011;9714;51.208;4.242;2023-02-18T05:24:51;10.13;;;4.53;;
19163;SDS011;9714;51.208;4.242;2023-02-18T05:44:18;11.33;;;5.80;;
19163;SDS011;9714;51.208;4.242;2023-02-18T05:49:48;13.70;;;6.83;;
19163;SDS011;9714;51.208;4.242;2023-02-18T05:52:43;17.13;;;5.90;;
19163;SDS011;9714;51.208;4.242;2023-02-18T05:55:19;13.97;;;5.63;;
19163;SDS011;9714;51.208;4.242;2023-02-18T05:58:07;16.73;;;5.20;;
19163;SDS011;9714;51.208;4.242;2023-02-18T06:01:00;13.93;;;5.23;;
19163;SDS011;9714;51.208;4.242;2023-02-18T06:03:42;13.87;;;4.30;;
19163;SDS011;9714;51.208;4.242;2023-02-18T06:06:50;9.93;;;3.20;;
19163;SDS011;9714;51.208;4.242;2023-02-18T06:09:09;17.10;;;3.87;;
19163;SDS011;9714;51.208;4.242;2023-02-18T06:12:04;12.73;;;2.83;;
19163;SDS011;9714;51.208;4.242;2023-02-18T06:14:38;16.13;;;3.13;;
19163;SDS011;9714;51.208;4.242;2023-02-18T06:17:13;13.93;;;2.97;;
19163;SDS011;9714;51.208;4.242;2023-02-18T06:19:49;14.40;;;3.03;;
19163;SDS011;9714;51.208;4.242;2023-02-18T06:22:28;13.37;;;2.43;;
19163;SDS011;9714;51.208;4.242;2023-02-18T06:25:11;19.80;;;2.43;;
19163;SDS011;9714;51.208;4.242;2023-02-18T06:27:57;18.73;;;2.40;;
19163;SDS011;9714;51.208;4.242;2023-02-18T06:30:34;18.27;;;3.00;;
19163;SDS011;9714;51.208;4.242;2023-02-18T06:33:18;20.50;;;2.80;;
19163;SDS011;9714;51.208;4.242;2023-02-18T06:38:33;16.97;;;2.97;;
19163;SDS011;9714;51.208;4.242;2023-02-18T06:39:59;18.07;;;2.10;;
19163;SDS011;9714;51.208;4.242;2023-02-18T06:42:51;14.40;;;2.53;;
19163;SDS011;9714;51.208;4.242;2023-02-18T06:45:21;18.50;;;1.97;;
19163;SDS011;9714;51.208;4.242;2023-02-18T06:47:59;18.30;;;2.40;;
19163;SDS011;9714;51.208;4.242;2023-02-18T06:53:39;14.63;;;2.00;;
19163;SDS011;9714;51.208;4.242;2023-02-18T06:59:46;19.20;;;2.63;;
19163;SDS011;9714;51.208;4.242;2023-02-18T07:05:36;18.77;;;2.43;;
19163;SDS011;9714;51.208;4.242;2023-02-18T07:08:05;19.23;;;2.97;;
19163;SDS011;9714;51.208;4.242;2023-02-18T07:31:34;14.77;;;2.47;;
19163;SDS011;9714;51.208;4.242;2023-02-18T07:34:09;15.37;;;2.73;;
19163;SDS011;9714;51.208;4.242;2023-02-18T07:36:50;12.60;;;2.63;;
19163;SDS011;9714;51.208;4.242;2023-02-18T07:40:15;17.83;;;2.67;;
19163;SDS011;9714;51.208;4.242;2023-02-18T07:42:52;20.03;;;3.37;;
19163;SDS011;9714;51.208;4.242;2023-02-18T07:50:57;17.47;;;2.67;;
19163;SDS011;9714;51.208;4.242;2023-02-18T07:53:36;18.57;;;2.50;;
19163;SDS011;9714;51.208;4.242;2023-02-18T07:56:15;16.67;;;1.90;;
19163;SDS011;9714;51.208;4.242;2023-02-18T07:58:59;12.60;;;2.37;;
19163;SDS011;9714;51.208;4.242;2023-02-18T08:01:41;15.83;;;2.73;;
19163;SDS011;9714;51.208;4.242;2023-02-18T08:04:09;16.97;;;2.80;;
19163;SDS011;9714;51.208;4.242;2023-02-18T08:06:36;16.63;;;2.60;;
19163;SDS011;9714;51.208;4.242;2023-02-18T08:09:08;15.23;;;2.80;;
19163;SDS011;9714;51.208;4.242;2023-02-18T08:32:25;15.00;;;2.93;;
19163;SDS011;9714;51.208;4.242;2023-02-18T08:35:20;11.93;;;2.23;;
19163;SDS011;9714;51.208;4.242;2023-02-18T08:38:04;16.20;;;2.50;;
19163;SDS011;9714;51.208;4.242;2023-02-18T08:40:41;17.90;;;2.27;;
19163;SDS011;9714;51.208;4.242;2023-02-18T08:44:03;13.63;;;2.60;;
19163;SDS011;9714;51.208;4.242;2023-02-18T08:53:12;11.77;;;2.07;;
19163;SDS011;9714;51.208;4.242;2023-02-18T08:55:41;17.13;;;2.47;;
19163;SDS011;9714;51.208;4.242;2023-02-18T08:58:29;15.97;;;2.30;;
19163;SDS011;9714;51.208;4.242;2023-02-18T09:01:32;9.97;;;1.57;;
19163;SDS011;9714;51.208;4.242;2023-02-18T09:07:44;13.17;;;1.87;;
19163;SDS011;9714;51.208;4.242;2023-02-18T09:10:24;12.50;;;1.90;;
19163;SDS011;9714;51.208;4.242;2023-02-18T09:12:58;14.00;;;2.23;;
19163;SDS011;9714;51.208;4.242;2023-02-18T09:15:42;13.00;;;2.33;;
19163;SDS011;9714;51.208;4.242;2023-02-18T09:18:29;16.40;;;2.83;;
19163;SDS011;9714;51.208;4.242;2023-02-18T09:21:13;10.73;;;1.90;;
19163;SDS011;9714;51.208;4.242;2023-02-18T09:24:05;14.80;;;1.93;;
19163;SDS011;9714;51.208;4.242;2023-02-18T09:32:55;9.73;;;2.10;;
19163;SDS011;9714;51.208;4.242;2023-02-18T09:35:27;13.20;;;1.73;;
19163;SDS011;9714;51.208;4.242;2023-02-18T09:37:56;13.90;;;2.00;;
19163;SDS011;9714;51.208;4.242;2023-02-18T09:40:34;11.10;;;1.97;;
19163;SDS011;9714;51.208;4.242;2023-02-18T09:43:09;15.37;;;2.47;;
19163;SDS011;9714;51.208;4.242;2023-02-18T09:45:45;13.33;;;2.10;;
19163;SDS011;9714;51.208;4.242;2023-02-18T09:48:14;14.83;;;2.53;;
19163;SDS011;9714;51.208;4.242;2023-02-18T09:50:41;10.60;;;2.03;;
19163;SDS011;9714;51.208;4.242;2023-02-18T09:53:13;10.53;;;1.47;;
19163;SDS011;9714;51.208;4.242;2023-02-18T09:55:40;12.13;;;2.17;;
19163;SDS011;9714;51.208;4.242;2023-02-18T09:58:14;18.87;;;2.53;;
19163;SDS011;9714;51.208;4.242;2023-02-18T10:00:45;15.27;;;2.77;;
19163;SDS011;9714;51.208;4.242;2023-02-18T10:03:16;11.60;;;2.40;;
19163;SDS011;9714;51.208;4.242;2023-02-18T10:05:46;12.07;;;1.97;;
19163;SDS011;9714;51.208;4.242;2023-02-18T10:08:26;13.67;;;2.23;;
19163;SDS011;9714;51.208;4.242;2023-02-18T10:10:54;18.40;;;2.20;;
19163;SDS011;9714;51.208;4.242;2023-02-18T10:13:26;13.20;;;2.07;;
19163;SDS011;9714;51.208;4.242;2023-02-18T10:15:55;9.50;;;2.53;;
19163;SDS011;9714;51.208;4.242;2023-02-18T10:18:26;17.67;;;2.70;;
19163;SDS011;9714;51.208;4.242;2023-02-18T10:21:02;12.50;;;2.37;;
19163;SDS011;9714;51.208;4.242;2023-02-18T10:23:31;15.17;;;2.60;;
19163;SDS011;9714;51.208;4.242;2023-02-18T10:26:02;23.17;;;3.43;;
19163;SDS011;9714;51.208;4.242;2023-02-18T10:28:33;11.13;;;2.20;;
19163;SDS011;9714;51.208;4.242;2023-02-18T10:31:02;18.30;;;2.80;;
19163;SDS011;9714;51.208;4.242;2023-02-18T10:33:38;17.33;;;3.13;;
19163;SDS011;9714;51.208;4.242;2023-02-18T10:36:23;21.27;;;2.97;;
19163;SDS011;9714;51.208;4.242;2023-02-18T10:39:01;17.23;;;2.87;;
19163;SDS011;9714;51.208;4.242;2023-02-18T10:41:41;18.77;;;3.00;;
19163;SDS011;9714;51.208;4.242;2023-02-18T10:44:20;17.13;;;3.10;;
19163;SDS011;9714;51.208;4.242;2023-02-18T10:46:59;16.33;;;3.03;;
19163;SDS011;9714;51.208;4.242;2023-02-18T10:49:43;17.73;;;2.63;;
19163;SDS011;9714;51.208;4.242;2023-02-18T10:52:21;17.40;;;3.03;;
19163;SDS011;9714;51.208;4.242;2023-02-18T10:55:00;14.60;;;2.77;;
19163;SDS011;9714;51.208;4.242;2023-02-18T11:11:30;12.00;;;2.57;;
19163;SDS011;9714;51.208;4.242;2023-02-18T11:15:02;14.63;;;2.63;;
19163;SDS011;9714;51.208;4.242;2023-02-18T12:23:31;20.00;;;6.63;;
19163;SDS011;9714;51.208;4.242;2023-02-18T12:26:04;22.53;;;6.03;;
19163;SDS011;9714;51.208;4.242;2023-02-18T12:28:56;22.97;;;5.20;;
19163;SDS011;9714;51.208;4.242;2023-02-18T12:31:41;18.47;;;4.80;;
19163;SDS011;9714;51.208;4.242;2023-02-18T12:34:30;23.20;;;5.97;;
19163;SDS011;9714;51.208;4.242;2023-02-18T12:37:12;26.23;;;5.23;;
19163;SDS011;9714;51.208;4.242;2023-02-18T12:39:57;16.47;;;5.40;;
19163;SDS011;9714;51.208;4.242;2023-02-18T12:42:39;22.10;;;5.10;;
19163;SDS011;9714;51.208;4.242;2023-02-18T12:45:36;12.67;;;3.90;;
19163;SDS011;9714;51.208;4.242;2023-02-18T12:48:19;14.83;;;4.17;;
19163;SDS011;9714;51.208;4.242;2023-02-18T12:53:53;12.77;;;4.00;;
19163;SDS011;9714;51.208;4.242;2023-02-18T12:56:48;14.03;;;3.60;;
19163;SDS011;9714;51.208;4.242;2023-02-18T12:59:41;17.47;;;3.93;;
19163;SDS011;9714;51.208;4.242;2023-02-18T13:02:33;13.87;;;4.07;;
19163;SDS011;9714;51.208;4.242;2023-02-18T13:05:22;17.27;;;4.10;;
19163;SDS011;9714;51.208;4.242;2023-02-18T13:08:05;20.67;;;3.93;;
19163;SDS011;9714;51.208;4.242;2023-02-18T13:10:46;16.20;;;4.10;;
19163;SDS011;9714;51.208;4.242;2023-02-18T13:13:23;16.73;;;4.17;;
19163;SDS011;9714;51.208;4.242;2023-02-18T13:15:54;16.17;;;4.40;;
19163;SDS011;9714;51.208;4.242;2023-02-18T13:18:25;19.40;;;4.83;;
19163;SDS011;9714;51.208;4.242;2023-02-18T13:20:56;18.27;;;4.67;;
19163;SDS011;9714;51.208;4.242;2023-02-18T13:23:27;16.87;;;3.83;;
19163;SDS011;9714;51.208;4.242;2023-02-18T13:25:59;21.73;;;4.63;;
19163;SDS011;9714;51.208;4.242;2023-02-18T13:28:31;15.00;;;4.17;;
19163;SDS011;9714;51.208;4.242;2023-02-18T13:34:02;18.83;;;4.80;;
19163;SDS011;9714;51.208;4.242;2023-02-18T13:36:40;14.93;;;3.63;;
19163;SDS011;9714;51.208;4.242;2023-02-18T13:39:18;18.80;;;5.13;;
19163;SDS011;9714;51.208;4.242;2023-02-18T13:41:48;22.83;;;4.90;;
19163;SDS011;9714;51.208;4.242;2023-02-18T13:50:13;17.20;;;4.43;;
19163;SDS011;9714;51.208;4.242;2023-02-18T13:52:49;17.67;;;4.50;;
19163;SDS011;9714;51.208;4.242;2023-02-18T13:55:19;15.37;;;4.07;;
19163;SDS011;9714;51.208;4.242;2023-02-18T13:57:48;19.80;;;4.17;;
19163;SDS011;9714;51.208;4.242;2023-02-18T14:00:21;16.87;;;4.03;;
19163;SDS011;9714;51.208;4.242;2023-02-18T14:02:56;18.30;;;4.10;;
19163;SDS011;9714;51.208;4.242;2023-02-18T14:05:37;17.90;;;4.30;;
19163;SDS011;9714;51.208;4.242;2023-02-18T14:08:07;19.50;;;5.03;;
19163;SDS011;9714;51.208;4.242;2023-02-18T14:10:39;16.87;;;4.13;;
19163;SDS011;9714;51.208;4.242;2023-02-18T14:13:20;20.00;;;4.13;;
19163;SDS011;9714;51.208;4.242;2023-02-18T14:15:54;18.80;;;5.30;;
19163;SDS011;9714;51.208;4.242;2023-02-18T14:18:31;13.70;;;3.77;;
19163;SDS011;9714;51.208;4.242;2023-02-18T14:21:20;16.13;;;3.77;;
19163;SDS011;9714;51.208;4.242;2023-02-18T14:24:00;13.50;;;4.07;;
19163;SDS011;9714;51.208;4.242;2023-02-18T14:26:29;15.40;;;4.00;;
19163;SDS011;9714;51.208;4.242;2023-02-18T14:28:59;18.90;;;4.03;;
19163;SDS011;9714;51.208;4.242;2023-02-18T14:31:49;15.17;;;3.90;;
19163;SDS011;9714;51.208;4.242;2023-02-18T14:34:42;17.83;;;3.63;;
19163;SDS011;9714;51.208;4.242;2023-02-18T14:38:06;26.40;;;4.27;;
19163;SDS011;9714;51.208;4.242;2023-02-18T14:40:59;17.53;;;3.63;;
19163;SDS011;9714;51.208;4.242;2023-02-18T14:43:49;19.33;;;3.83;;
19163;SDS011;9714;51.208;4.242;2023-02-18T14:46:32;12.10;;;3.83;;
19163;SDS011;9714;51.208;4.242;2023-02-18T14:51:56;13.10;;;3.23;;
19163;SDS011;9714;51.208;4.242;2023-02-18T14:54:24;17.93;;;3.83;;
19163;SDS011;9714;51.208;4.242;2023-02-18T14:56:55;14.77;;;4.00;;
19163;SDS011;9714;51.208;4.242;2023-02-18T14:59:24;18.40;;;4.17;;
19163;SDS011;9714;51.208;4.242;2023-02-18T15:01:54;18.63;;;3.77;;
19163;SDS011;9714;51.208;4.242;2023-02-18T15:04:22;19.77;;;4.73;;
19163;SDS011;9714;51.208;4.242;2023-02-18T15:06:58;14.83;;;4.03;;
19163;SDS011;9714;51.208;4.242;2023-02-18T15:09:26;15.27;;;3.43;;
19163;SDS011;9714;51.208;4.242;2023-02-18T15:11:55;19.67;;;4.60;;
19163;SDS011;9714;51.208;4.242;2023-02-18T15:14:25;14.73;;;4.17;;
19163;SDS011;9714;51.208;4.242;2023-02-18T15:16:54;16.73;;;4.33;;
19163;SDS011;9714;51.208;4.242;2023-02-18T15:19:23;17.93;;;3.87;;
19163;SDS011;9714;51.208;4.242;2023-02-18T15:21:52;17.83;;;4.10;;
19163;SDS011;9714;51.208;4.242;2023-02-18T15:24:24;18.10;;;4.17;;
19163;SDS011;9714;51.208;4.242;2023-02-18T15:26:53;18.13;;;4.10;;
19163;SDS011;9714;51.208;4.242;2023-02-18T15:29:24;13.27;;;3.63;;
19163;SDS011;9714;51.208;4.242;2023-02-18T15:31:54;17.37;;;4.10;;
19163;SDS011;9714;51.208;4.242;2023-02-18T15:34:33;20.77;;;4.13;;
19163;SDS011;9714;51.208;4.242;2023-02-18T15:37:03;13.47;;;3.50;;
19163;SDS011;9714;51.208;4.242;2023-02-18T15:39:32;19.90;;;4.70;;
19163;SDS011;9714;51.208;4.242;2023-02-18T15:42:05;21.00;;;4.87;;
19163;SDS011;9714;51.208;4.242;2023-02-18T15:44:35;15.67;;;4.23;;
19163;SDS011;9714;51.208;4.242;2023-02-18T15:47:04;19.47;;;4.00;;
19163;SDS011;9714;51.208;4.242;2023-02-18T15:49:34;15.97;;;4.43;;
19163;SDS011;9714;51.208;4.242;2023-02-18T15:52:05;15.83;;;4.30;;
19163;SDS011;9714;51.208;4.242;2023-02-18T15:54:37;24.17;;;4.63;;
19163;SDS011;9714;51.208;4.242;2023-02-18T15:57:08;19.80;;;4.70;;
19163;SDS011;9714;51.208;4.242;2023-02-18T15:59:42;15.83;;;4.97;;
19163;SDS011;9714;51.208;4.242;2023-02-18T16:02:13;14.73;;;4.53;;
19163;SDS011;9714;51.208;4.242;2023-02-18T16:04:44;23.67;;;5.17;;
19163;SDS011;9714;51.208;4.242;2023-02-18T16:07:20;18.63;;;5.20;;
19163;SDS011;9714;51.208;4.242;2023-02-18T16:10:04;18.23;;;4.83;;
19163;SDS011;9714;51.208;4.242;2023-02-18T16:12:36;20.10;;;5.43;;
19163;SDS011;9714;51.208;4.242;2023-02-18T16:15:04;16.80;;;4.00;;
19163;SDS011;9714;51.208;4.242;2023-02-18T16:17:32;18.47;;;4.13;;
19163;SDS011;9714;51.208;4.242;2023-02-18T16:20:13;15.87;;;4.30;;
19163;SDS011;9714;51.208;4.242;2023-02-18T16:22:44;22.40;;;5.07;;
19163;SDS011;9714;51.208;4.242;2023-02-18T16:25:18;18.00;;;4.50;;
19163;SDS011;9714;51.208;4.242;2023-02-18T16:27:49;17.13;;;3.87;;
19163;SDS011;9714;51.208;4.242;2023-02-18T16:30:19;17.37;;;4.97;;
19163;SDS011;9714;51.208;4.242;2023-02-18T16:32:48;16.33;;;4.50;;
19163;SDS011;9714;51.208;4.242;2023-02-18T16:35:17;20.60;;;4.90;;
19163;SDS011;9714;51.208;4.242;2023-02-18T16:37:44;14.17;;;4.93;;
19163;SDS011;9714;51.208;4.242;2023-02-18T16:40:23;22.57;;;5.10;;
19163;SDS011;9714;51.208;4.242;2023-02-18T16:42:52;18.73;;;4.63;;
19163;SDS011;9714;51.208;4.242;2023-02-18T16:45:23;17.80;;;4.53;;
19163;SDS011;9714;51.208;4.242;2023-02-18T16:47:57;16.53;;;4.63;;
19163;SDS011;9714;51.208;4.242;2023-02-18T16:50:25;14.70;;;4.57;;
19163;SDS011;9714;51.208;4.242;2023-02-18T16:52:55;12.80;;;4.43;;
19163;SDS011;9714;51.208;4.242;2023-02-18T16:55:25;16.17;;;5.20;;
19163;SDS011;9714;51.208;4.242;2023-02-18T16:57:54;18.60;;;5.27;;
19163;SDS011;9714;51.208;4.242;2023-02-18T17:00:21;16.50;;;5.43;;
19163;SDS011;9714;51.208;4.242;2023-02-18T17:02:49;14.07;;;4.47;;
19163;SDS011;9714;51.208;4.242;2023-02-18T17:05:20;16.50;;;5.07;;
19163;SDS011;9714;51.208;4.242;2023-02-18T17:07:48;17.73;;;5.17;;
19163;SDS011;9714;51.208;4.242;2023-02-18T17:10:16;19.73;;;5.63;;
19163;SDS011;9714;51.208;4.242;2023-02-18T17:12:45;15.07;;;4.93;;
19163;SDS011;9714;51.208;4.242;2023-02-18T17:15:12;18.07;;;5.50;;
19163;SDS011;9714;51.208;4.242;2023-02-18T17:17:52;15.07;;;5.13;;
19163;SDS011;9714;51.208;4.242;2023-02-18T17:20:19;18.47;;;5.47;;
19163;SDS011;9714;51.208;4.242;2023-02-18T17:22:46;14.97;;;5.70;;
19163;SDS011;9714;51.208;4.242;2023-02-18T17:25:14;29.00;;;7.10;;
19163;SDS011;9714;51.208;4.242;2023-02-18T17:27:47;17.63;;;5.63;;
19163;SDS011;9714;51.208;4.242;2023-02-18T17:30:14;21.00;;;8.03;;
19163;SDS011;9714;51.208;4.242;2023-02-18T17:32:44;20.03;;;8.13;;
19163;SDS011;9714;51.208;4.242;2023-02-18T17:35:15;26.77;;;8.43;;
19163;SDS011;9714;51.208;4.242;2023-02-18T17:37:44;22.93;;;8.43;;
19163;SDS011;9714;51.208;4.242;2023-02-18T17:40:12;24.43;;;8.50;;
19163;SDS011;9714;51.208;4.242;2023-02-18T17:42:40;19.47;;;7.37;;
19163;SDS011;9714;51.208;4.242;2023-02-18T17:45:18;22.93;;;9.33;;
19163;SDS011;9714;51.208;4.242;2023-02-18T17:47:52;23.57;;;8.43;;
19163;SDS011;9714;51.208;4.242;2023-02-18T17:50:21;23.43;;;8.23;;
19163;SDS011;9714;51.208;4.242;2023-02-18T17:52:50;22.27;;;8.60;;
19163;SDS011;9714;51.208;4.242;2023-02-18T17:55:18;20.17;;;7.90;;
19163;SDS011;9714;51.208;4.242;2023-02-18T17:57:47;23.40;;;7.50;;
19163;SDS011;9714;51.208;4.242;2023-02-18T18:00:15;20.67;;;6.93;;
19163;SDS011;9714;51.208;4.242;2023-02-18T18:02:45;19.40;;;7.13;;
19163;SDS011;9714;51.208;4.242;2023-02-18T18:05:18;18.63;;;7.00;;
19163;SDS011;9714;51.208;4.242;2023-02-18T18:07:47;22.00;;;7.53;;
19163;SDS011;9714;51.208;4.242;2023-02-18T18:10:16;19.33;;;6.77;;
19163;SDS011;9714;51.208;4.242;2023-02-18T18:12:46;17.87;;;6.40;;
19163;SDS011;9714;51.208;4.242;2023-02-18T18:15:19;21.20;;;6.93;;
19163;SDS011;9714;51.208;4.242;2023-02-18T18:17:52;23.77;;;7.73;;
19163;SDS011;9714;51.208;4.242;2023-02-18T18:20:20;23.33;;;7.00;;
19163;SDS011;9714;51.208;4.242;2023-02-18T18:22:50;19.70;;;6.73;;
19163;SDS011;9714;51.208;4.242;2023-02-18T18:25:20;19.90;;;7.20;;
19163;SDS011;9714;51.208;4.242;2023-02-18T18:27:51;18.23;;;7.37;;
19163;SDS011;9714;51.208;4.242;2023-02-18T18:30:20;20.00;;;7.30;;
19163;SDS011;9714;51.208;4.242;2023-02-18T18:32:49;15.33;;;6.60;;
19163;SDS011;9714;51.208;4.242;2023-02-18T18:35:22;18.90;;;8.37;;
19163;SDS011;9714;51.208;4.242;2023-02-18T18:37:52;20.77;;;8.43;;
19163;SDS011;9714;51.208;4.242;2023-02-18T18:40:21;18.77;;;7.70;;
19163;SDS011;9714;51.208;4.242;2023-02-18T18:42:49;18.60;;;7.80;;
19163;SDS011;9714;51.208;4.242;2023-02-18T18:45:17;17.30;;;7.73;;
19163;SDS011;9714;51.208;4.242;2023-02-18T18:47:47;19.80;;;8.60;;
19163;SDS011;9714;51.208;4.242;2023-02-18T18:50:17;20.67;;;9.57;;
19163;SDS011;9714;51.208;4.242;2023-02-18T18:52:47;20.93;;;8.47;;
19163;SDS011;9714;51.208;4.242;2023-02-18T18:55:20;20.00;;;7.50;;